Time;durP1;ratioP1;P1;durP2;ratioP2;P2;SDS_P1;SDS_P2;PMS_P1;PMS_P2;Temp;Humidity;BMP_temperature;BMP_pressure;BME280_temperature;BME280_humidity;BME280_pressure;Samples;Min_cycle;Max_cycle;Signal;HPM_P1;HPM_P2
2023/06/08 00:01:40;;;;;;;;;;;24.60;36.90;;;;;;1504738;77;641;-63
2023/06/08 00:03:43;;;;;;;;;;;24.60;36.80;;;;;;1519555;77;672;-64
2023/06/08 00:05:49;;;;;;;;;;;24.60;36.70;;;;;;1523937;77;636;-64
2023/06/08 00:07:51;;;;;;;;;;;24.60;36.60;;;;;;1512791;77;1125;-65
2023/06/08 00:09:53;;;;;;;;;;;24.60;36.60;;;;;;1517841;77;806;-63
2023/06/08 00:11:55;;;;;;;;;;;24.60;36.50;;;;;;1517578;77;807;-63
2023/06/08 00:13:57;;;;;;;;;;;24.60;36.50;;;;;;1517406;76;1537;-64
2023/06/08 00:16:00;;;;;;;;;;;24.60;36.50;;;;;;1515260;76;776;-64
2023/06/08 00:18:02;;;;;;;;;;;24.60;36.50;;;;;;1516528;76;1920;-64
2023/06/08 00:20:09;;;;;;;;;;;24.60;36.40;;;;;;1502974;77;728;-63
2023/06/08 00:22:08;;;;;;;;;;;24.60;36.40;;;;;;1515870;76;993;-64
2023/06/08 00:24:11;;;;;;;;;;;24.60;36.30;;;;;;1515194;77;722;-65
2023/06/08 00:26:13;;;;;;;;;;;24.70;36.40;;;;;;1525899;76;911;-64
2023/06/08 00:28:15;;;;;;;;;;;24.60;36.30;;;;;;1518051;77;1650;-66
2023/06/08 00:30:17;;;;;;;;;;;24.60;36.30;;;;;;1518428;76;719;-64
2023/06/08 00:32:20;;;;;;;;;;;24.50;36.20;;;;;;1509027;77;790;-64
2023/06/08 00:34:22;;;;;;;;;;;24.60;36.20;;;;;;1525188;77;795;-64
2023/06/08 00:36:23;;;;;;;;;;;24.60;36.20;;;;;;1518091;77;773;-63
2023/06/08 00:38:25;;;;;;;;;;;24.60;36.30;;;;;;1520011;77;1941;-64
2023/06/08 00:40:27;;;;;;;;;;;24.60;36.50;;;;;;1518162;77;790;-62
2023/06/08 00:42:29;;;;;;;;;;;24.60;36.70;;;;;;1518308;77;655;-64
2023/06/08 00:44:31;;;;;;;;;;;24.60;36.50;;;;;;1516162;77;736;-63
2023/06/08 00:46:33;;;;;;;;;;;24.60;36.60;;;;;;1532535;77;660;-63
2023/06/08 00:48:35;;;;;;;;;;;24.50;36.30;;;;;;1526573;77;1143;-63
2023/06/08 00:50:37;;;;;;;;;;;24.50;36.20;;;;;;1508807;77;848;-62
2023/06/08 00:52:39;;;;;;;;;;;24.50;36.20;;;;;;1512072;77;737;-63
2023/06/08 00:54:43;;;;;;;;;;;24.60;36.10;;;;;;1512391;77;1554;-63
2023/06/08 00:56:49;;;;;;;;;;;24.50;36.20;;;;;;1510961;76;732;-63
2023/06/08 00:58:48;;;;;;;;;;;24.50;36.10;;;;;;1512013;77;1935;-63
2023/06/08 01:00:50;;;;;;;;;;;24.50;36.10;;;;;;1505690;77;719;-63
2023/06/08 01:02:53;;;;;;;;;;;24.50;36.00;;;;;;1513816;77;802;-63
2023/06/08 01:04:56;;;;;;;;;;;24.50;36.00;;;;;;1521502;77;792;-63
2023/06/08 01:07:14;;;;;;;;;;;24.50;36.00;;;;;;1514460;77;752;-62
2023/06/08 01:09:23;;;;;;;;;;;24.50;36.00;;;;;;1515723;77;1961;-62
2023/06/08 01:11:42;;;;;;;;;;;24.50;36.00;;;;;;1514842;77;680;-63
2023/06/08 01:13:46;;;;;;;;;;;24.50;35.90;;;;;;1519619;76;768;-63
2023/06/08 01:15:51;;;;;;;;;;;24.50;35.90;;;;;;1515184;77;1906;-63
2023/06/08 01:17:57;;;;;;;;;;;24.50;35.90;;;;;;1517831;77;1944;-62
2023/06/08 01:20:11;;;;;;;;;;;24.50;35.90;;;;;;1505320;77;1677;-63
2023/06/08 01:22:29;;;;;;;;;;;24.50;35.90;;;;;;1524591;77;1882;-62
2023/06/08 01:24:31;;;;;;;;;;;24.50;36.00;;;;;;1513396;77;1549;-62
2023/06/08 01:26:33;;;;;;;;;;;24.50;36.00;;;;;;1514896;77;741;-63
2023/06/08 01:28:39;;;;;;;;;;;24.50;35.90;;;;;;1516531;77;1140;-64
2023/06/08 01:30:42;;;;;;;;;;;24.50;36.20;;;;;;1520809;77;1557;-63
2023/06/08 01:32:44;;;;;;;;;;;24.40;36.10;;;;;;1503394;77;736;-63
2023/06/08 01:34:46;;;;;;;;;;;24.40;35.90;;;;;;1513384;77;701;-63
2023/06/08 01:36:52;;;;;;;;;;;24.50;36.00;;;;;;1518087;77;1580;-62
2023/06/08 01:38:56;;;;;;;;;;;24.40;35.80;;;;;;1513051;77;1940;-62
2023/06/08 01:40:58;;;;;;;;;;;24.40;36.00;;;;;;1506742;77;1920;-62
2023/06/08 01:43:00;;;;;;;;;;;24.50;36.00;;;;;;1517510;77;723;-62
2023/06/08 01:45:13;;;;;;;;;;;24.40;35.90;;;;;;1518705;77;760;-62
2023/06/08 01:47:15;;;;;;;;;;;24.50;35.90;;;;;;1482123;77;1147;-62
2023/06/08 01:49:17;;;;;;;;;;;24.40;35.70;;;;;;1506452;77;715;-61
2023/06/08 01:51:19;;;;;;;;;;;24.50;36.00;;;;;;1516825;77;1436;-62
2023/06/08 01:53:21;;;;;;;;;;;24.40;35.70;;;;;;1517740;77;734;-62
2023/06/08 01:55:24;;;;;;;;;;;24.40;35.80;;;;;;1515777;77;757;-62
2023/06/08 01:57:26;;;;;;;;;;;24.50;35.90;;;;;;1519728;77;1923;-62
2023/06/08 01:59:28;;;;;;;;;;;24.50;35.80;;;;;;1505168;77;732;-62
2023/06/08 02:01:29;;;;;;;;;;;24.50;35.80;;;;;;1515755;77;730;-61
2023/06/08 02:03:31;;;;;;;;;;;24.40;35.80;;;;;;1516750;77;766;-62
2023/06/08 02:05:33;;;;;;;;;;;24.40;35.70;;;;;;1516943;77;1598;-62
2023/06/08 02:07:36;;;;;;;;;;;24.40;35.60;;;;;;1512945;77;1157;-63
2023/06/08 02:09:38;;;;;;;;;;;24.40;35.70;;;;;;1517422;77;733;-62
2023/06/08 02:11:40;;;;;;;;;;;24.50;35.80;;;;;;1508773;77;707;-62
2023/06/08 02:13:42;;;;;;;;;;;24.40;35.70;;;;;;1518564;77;682;-63
2023/06/08 02:15:44;;;;;;;;;;;24.50;35.70;;;;;;1507664;77;792;-63
2023/06/08 02:17:46;;;;;;;;;;;24.50;35.90;;;;;;1514663;77;1933;-64
2023/06/08 02:19:48;;;;;;;;;;;24.50;35.60;;;;;;1509988;77;1602;-63
2023/06/08 02:21:50;;;;;;;;;;;24.50;35.70;;;;;;1515125;76;719;-62
2023/06/08 02:23:52;;;;;;;;;;;24.50;35.60;;;;;;1526301;77;749;-62
2023/06/08 02:25:54;;;;;;;;;;;24.40;35.50;;;;;;1520137;77;752;-63
2023/06/08 02:27:56;;;;;;;;;;;24.40;35.50;;;;;;1521832;77;1097;-64
2023/06/08 02:29:58;;;;;;;;;;;24.40;35.50;;;;;;1518591;76;798;-63
2023/06/08 02:32:00;;;;;;;;;;;24.40;35.40;;;;;;1514373;77;687;-63
2023/06/08 02:34:02;;;;;;;;;;;24.50;35.50;;;;;;1516638;77;1548;-62
2023/06/08 02:36:04;;;;;;;;;;;24.40;35.40;;;;;;1517014;77;688;-63
2023/06/08 02:38:06;;;;;;;;;;;24.40;35.40;;;;;;1501096;77;1928;-63
2023/06/08 02:40:08;;;;;;;;;;;24.40;35.30;;;;;;1521351;77;740;-63
2023/06/08 02:42:10;;;;;;;;;;;24.50;35.50;;;;;;1517933;77;772;-63
2023/06/08 02:44:12;;;;;;;;;;;24.40;35.50;;;;;;1519426;77;702;-63
2023/06/08 02:46:13;;;;;;;;;;;24.50;35.50;;;;;;1518392;77;745;-63
2023/06/08 02:48:15;;;;;;;;;;;24.40;35.40;;;;;;1511735;77;1520;-62
2023/06/08 02:50:17;;;;;;;;;;;24.40;35.40;;;;;;1516205;77;824;-62
2023/06/08 02:52:20;;;;;;;;;;;24.40;35.50;;;;;;1517920;77;630;-62
2023/06/08 02:54:22;;;;;;;;;;;24.40;35.50;;;;;;1512622;77;665;-62
2023/06/08 02:56:25;;;;;;;;;;;24.40;35.50;;;;;;1514563;77;774;-62
2023/06/08 02:58:27;;;;;;;;;;;24.40;35.50;;;;;;1516844;77;1925;-65
2023/06/08 03:00:34;;;;;;;;;;;24.50;35.60;;;;;;1511431;77;748;-63
2023/06/08 03:02:32;;;;;;;;;;;24.40;35.50;;;;;;1518434;77;1603;-63
2023/06/08 03:04:34;;;;;;;;;;;24.40;35.50;;;;;;1521345;77;767;-63
2023/06/08 03:06:36;;;;;;;;;;;24.50;35.60;;;;;;1511164;77;721;-63
2023/06/08 03:08:40;;;;;;;;;;;24.40;35.50;;;;;;1525605;77;1131;-64
2023/06/08 03:10:42;;;;;;;;;;;24.40;35.50;;;;;;1506225;77;1615;-63
2023/06/08 03:12:43;;;;;;;;;;;24.40;35.50;;;;;;1510751;77;784;-63
2023/06/08 03:14:48;;;;;;;;;;;24.40;35.50;;;;;;1512872;77;1024;-63
2023/06/08 03:16:49;;;;;;;;;;;24.40;35.50;;;;;;1512335;77;1607;-63
2023/06/08 03:18:51;;;;;;;;;;;24.50;35.50;;;;;;1517887;77;1956;-64
2023/06/08 03:20:53;;;;;;;;;;;24.50;35.60;;;;;;1520739;77;660;-64
2023/06/08 03:23:14;;;;;;;;;;;24.50;35.90;;;;;;1525914;77;793;-62
2023/06/08 03:25:16;;;;;;;;;;;24.40;36.00;;;;;;1488391;78;712;-62
2023/06/08 03:27:18;;;;;;;;;;;24.40;35.80;;;;;;1483724;78;1197;-62
2023/06/08 03:29:20;;;;;;;;;;;24.50;36.00;;;;;;1484606;78;1540;-63
2023/06/08 03:31:22;;;;;;;;;;;24.50;36.00;;;;;;1486605;78;761;-63
2023/06/08 03:33:25;;;;;;;;;;;24.50;36.00;;;;;;1490537;78;591;-63
2023/06/08 03:35:27;;;;;;;;;;;24.50;35.90;;;;;;1485766;78;775;-62
2023/06/08 03:37:29;;;;;;;;;;;24.50;36.00;;;;;;1488897;78;1141;-63
2023/06/08 03:39:31;;;;;;;;;;;24.50;36.00;;;;;;1479975;78;1950;-63
2023/06/08 03:41:33;;;;;;;;;;;24.40;35.80;;;;;;1486469;78;834;-63
2023/06/08 03:43:35;;;;;;;;;;;24.40;35.80;;;;;;1485070;78;1455;-64
2023/06/08 03:45:36;;;;;;;;;;;24.40;35.90;;;;;;1504415;78;797;-64
2023/06/08 03:47:38;;;;;;;;;;;24.40;35.80;;;;;;1488571;78;1091;-64
2023/06/08 03:49:40;;;;;;;;;;;24.50;36.00;;;;;;1487453;78;793;-62
2023/06/08 03:51:42;;;;;;;;;;;24.50;35.90;;;;;;1492164;78;710;-62
2023/06/08 03:53:44;;;;;;;;;;;24.40;35.80;;;;;;1486161;78;800;-63
2023/06/08 03:55:47;;;;;;;;;;;24.40;35.80;;;;;;1492573;78;757;-62
2023/06/08 03:57:48;;;;;;;;;;;24.50;36.00;;;;;;1494314;78;1582;-62
2023/06/08 03:59:50;;;;;;;;;;;24.50;36.00;;;;;;1489809;78;1935;-62
2023/06/08 04:01:52;;;;;;;;;;;24.50;36.00;;;;;;1497684;78;739;-62
2023/06/08 04:03:54;;;;;;;;;;;24.40;35.80;;;;;;1487896;78;759;-63
2023/06/08 04:05:56;;;;;;;;;;;24.50;35.90;;;;;;1496998;78;659;-65
2023/06/08 04:08:02;;;;;;;;;;;24.50;36.00;;;;;;1483440;78;1184;-62
2023/06/08 04:10:02;;;;;;;;;;;24.40;35.80;;;;;;1498903;78;1619;-63
2023/06/08 04:12:05;;;;;;;;;;;24.40;35.80;;;;;;1495958;78;1368;-62
2023/06/08 04:14:07;;;;;;;;;;;24.50;35.90;;;;;;1500173;78;747;-63
2023/06/08 04:16:10;;;;;;;;;;;24.50;35.90;;;;;;1481004;78;734;-62
2023/06/08 04:18:11;;;;;;;;;;;24.40;35.80;;;;;;1491602;78;1160;-62
2023/06/08 04:20:13;;;;;;;;;;;24.30;35.70;;;;;;1492555;78;1932;-63
2023/06/08 04:22:15;;;;;;;;;;;24.50;35.90;;;;;;1484719;78;987;-64
2023/06/08 04:24:17;;;;;;;;;;;24.40;35.80;;;;;;1491710;78;805;-63
2023/06/08 04:26:20;;;;;;;;;;;24.50;36.00;;;;;;1485104;78;1317;-63
2023/06/08 04:28:22;;;;;;;;;;;24.40;36.00;;;;;;1490105;78;1209;-63
2023/06/08 04:30:26;;;;;;;;;;;24.40;36.00;;;;;;1480852;78;649;-62
2023/06/08 04:32:28;;;;;;;;;;;24.40;36.00;;;;;;1487418;78;781;-62
2023/06/08 04:34:31;;;;;;;;;;;24.40;36.00;;;;;;1496447;78;725;-62
2023/06/08 04:36:34;;;;;;;;;;;24.40;36.00;;;;;;1485296;78;1965;-64
2023/06/08 04:38:36;;;;;;;;;;;24.40;36.10;;;;;;1489757;78;1930;-62
2023/06/08 04:40:38;;;;;;;;;;;24.50;36.30;;;;;;1488371;78;1527;-62
2023/06/08 04:42:41;;;;;;;;;;;24.40;36.10;;;;;;1477670;78;764;-62
2023/06/08 04:44:43;;;;;;;;;;;24.40;36.30;;;;;;1479407;78;657;-61
2023/06/08 04:46:45;;;;;;;;;;;24.40;36.50;;;;;;1471428;78;780;-61
2023/06/08 04:48:48;;;;;;;;;;;24.40;36.40;;;;;;1484377;78;1137;-61
2023/06/08 04:50:50;;;;;;;;;;;24.50;36.50;;;;;;1496518;78;717;-61
2023/06/08 04:52:55;;;;;;;;;;;24.50;36.40;;;;;;1492247;78;773;-63
2023/06/08 04:55:00;;;;;;;;;;;24.50;36.50;;;;;;1496102;78;1835;-62
2023/06/08 04:56:59;;;;;;;;;;;24.50;36.50;;;;;;1491072;78;1659;-62
2023/06/08 04:59:01;;;;;;;;;;;24.40;36.50;;;;;;1495886;78;1923;-63
2023/06/08 05:01:03;;;;;;;;;;;24.50;36.50;;;;;;1494720;78;650;-63
2023/06/08 05:03:05;;;;;;;;;;;24.40;36.50;;;;;;1484400;78;953;-62
2023/06/08 05:05:07;;;;;;;;;;;24.40;36.60;;;;;;1486366;78;723;-62
2023/06/08 05:07:09;;;;;;;;;;;24.50;36.70;;;;;;1486989;78;1192;-62
2023/06/08 05:09:12;;;;;;;;;;;24.50;36.60;;;;;;1479352;78;1627;-62
2023/06/08 05:11:14;;;;;;;;;;;24.50;36.80;;;;;;1497415;78;841;-61
2023/06/08 05:13:16;;;;;;;;;;;24.40;36.70;;;;;;1477256;78;705;-62
2023/06/08 05:15:18;;;;;;;;;;;24.50;36.80;;;;;;1490903;78;820;-62
2023/06/08 05:17:21;;;;;;;;;;;24.50;36.90;;;;;;1471494;78;1179;-63
2023/06/08 05:19:23;;;;;;;;;;;24.50;37.00;;;;;;1482735;78;1906;-62
2023/06/08 05:21:26;;;;;;;;;;;24.50;37.00;;;;;;1478850;78;669;-62
2023/06/08 05:23:27;;;;;;;;;;;24.50;37.00;;;;;;1483785;78;1709;-61
2023/06/08 05:25:36;;;;;;;;;;;24.50;37.00;;;;;;1484486;78;803;-63
2023/06/08 05:27:37;;;;;;;;;;;24.60;37.40;;;;;;1483050;78;1160;-64
2023/06/08 05:29:39;;;;;;;;;;;24.60;37.70;;;;;;1486222;78;722;-65
2023/06/08 05:31:40;;;;;;;;;;;24.60;37.50;;;;;;1485965;78;732;-65
2023/06/08 05:33:42;;;;;;;;;;;24.60;37.40;;;;;;1494259;78;795;-64
2023/06/08 05:35:44;;;;;;;;;;;24.60;37.40;;;;;;1488531;78;934;-63
2023/06/08 05:37:46;;;;;;;;;;;24.60;37.40;;;;;;1478321;78;1777;-63
2023/06/08 05:39:48;;;;;;;;;;;24.60;37.60;;;;;;1494917;78;1932;-63
2023/06/08 05:41:50;;;;;;;;;;;24.60;37.60;;;;;;1484423;78;754;-64
2023/06/08 05:43:52;;;;;;;;;;;24.70;37.70;;;;;;1490302;78;800;-65
2023/06/08 05:45:53;;;;;;;;;;;24.60;37.70;;;;;;1488513;78;764;-62
2023/06/08 05:47:55;;;;;;;;;;;24.60;38.10;;;;;;1486808;78;1153;-63
2023/06/08 05:49:57;;;;;;;;;;;24.60;38.40;;;;;;1491365;78;1402;-63
2023/06/08 05:51:59;;;;;;;;;;;24.60;38.30;;;;;;1483792;78;779;-63
2023/06/08 05:54:01;;;;;;;;;;;24.60;38.40;;;;;;1483091;78;807;-63
2023/06/08 05:56:03;;;;;;;;;;;24.70;38.40;;;;;;1502510;78;735;-64
2023/06/08 05:58:05;;;;;;;;;;;24.70;38.40;;;;;;1488819;78;1096;-63
2023/06/08 06:00:11;;;;;;;;;;;24.70;38.50;;;;;;1477005;78;1908;-63
2023/06/08 06:02:11;;;;;;;;;;;24.80;38.50;;;;;;1478945;78;1490;-63
2023/06/08 06:04:13;;;;;;;;;;;24.70;38.60;;;;;;1483755;78;1542;-61
2023/06/08 06:06:16;;;;;;;;;;;24.70;38.90;;;;;;1477980;78;765;-62
2023/06/08 06:08:18;;;;;;;;;;;24.70;39.10;;;;;;1484941;78;1251;-63
2023/06/08 06:10:20;;;;;;;;;;;24.80;38.80;;;;;;1474397;78;714;-62
2023/06/08 06:12:22;;;;;;;;;;;24.70;38.60;;;;;;1480195;78;766;-62
2023/06/08 06:14:24;;;;;;;;;;;24.70;38.50;;;;;;1496928;78;839;-63
2023/06/08 06:16:25;;;;;;;;;;;24.70;38.50;;;;;;1487806;78;792;-62
2023/06/08 06:18:27;;;;;;;;;;;24.60;38.50;;;;;;1488640;78;1378;-63
2023/06/08 06:20:29;;;;;;;;;;;24.70;38.60;;;;;;1494466;78;1936;-63
2023/06/08 06:22:31;;;;;;;;;;;24.60;38.40;;;;;;1489886;78;802;-62
2023/06/08 06:24:33;;;;;;;;;;;24.60;38.60;;;;;;1495005;78;684;-63
2023/06/08 06:26:35;;;;;;;;;;;24.60;38.60;;;;;;1493901;78;838;-62
2023/06/08 06:28:38;;;;;;;;;;;24.60;38.60;;;;;;1491364;78;1153;-63
2023/06/08 06:30:39;;;;;;;;;;;24.60;38.60;;;;;;1479816;78;1089;-63
2023/06/08 06:32:41;;;;;;;;;;;24.60;38.70;;;;;;1496295;78;1454;-63
2023/06/08 06:34:43;;;;;;;;;;;24.60;38.70;;;;;;1490015;78;1401;-63
2023/06/08 06:36:45;;;;;;;;;;;24.60;38.80;;;;;;1486844;78;1256;-63
2023/06/08 06:38:47;;;;;;;;;;;24.60;38.90;;;;;;1481164;78;1431;-63
2023/06/08 06:40:52;;;;;;;;;;;24.60;38.90;;;;;;1485017;78;1913;-62
2023/06/08 06:42:53;;;;;;;;;;;24.50;38.80;;;;;;1486899;78;1457;-63
2023/06/08 06:44:55;;;;;;;;;;;24.60;38.90;;;;;;1496351;78;1376;-63
2023/06/08 06:46:57;;;;;;;;;;;24.60;38.90;;;;;;1481421;78;1563;-63
2023/06/08 06:48:59;;;;;;;;;;;24.60;38.90;;;;;;1486937;78;1315;-63
2023/06/08 06:51:00;;;;;;;;;;;24.60;38.90;;;;;;1504609;78;1275;-64
2023/06/08 06:53:02;;;;;;;;;;;24.60;38.80;;;;;;1486008;78;1314;-63
2023/06/08 06:55:05;;;;;;;;;;;24.60;38.90;;;;;;1498356;78;1270;-63
2023/06/08 06:57:07;;;;;;;;;;;24.50;38.90;;;;;;1486824;78;1161;-63
2023/06/08 06:59:09;;;;;;;;;;;24.60;38.90;;;;;;1481248;78;1645;-63
2023/06/08 07:01:18;;;;;;;;;;;24.60;39.00;;;;;;1497061;78;1927;-63
2023/06/08 07:03:18;;;;;;;;;;;24.50;38.90;;;;;;1483160;78;1549;-63
2023/06/08 07:05:20;;;;;;;;;;;24.60;39.00;;;;;;1475540;78;1512;-63
2023/06/08 07:07:23;;;;;;;;;;;24.60;39.00;;;;;;1483597;78;1542;-63
2023/06/08 07:09:24;;;;;;;;;;;24.60;39.00;;;;;;1479287;78;1145;-62
2023/06/08 07:11:26;;;;;;;;;;;24.60;39.00;;;;;;1487249;78;1341;-62
2023/06/08 07:13:28;;;;;;;;;;;24.60;39.10;;;;;;1486239;78;1147;-62
2023/06/08 07:15:30;;;;;;;;;;;24.60;39.10;;;;;;1481244;78;1583;-64
2023/06/08 07:17:32;;;;;;;;;;;24.60;39.10;;;;;;1485834;78;1327;-64
2023/06/08 07:19:34;;;;;;;;;;;24.60;40.70;;;;;;1484153;78;1936;-65
2023/06/08 07:21:41;;;;;;;;;;;24.70;40.70;;;;;;1489315;78;1295;-64
2023/06/08 07:23:40;;;;;;;;;;;24.70;40.90;;;;;;1484789;78;1502;-65
2023/06/08 07:25:42;;;;;;;;;;;24.80;40.60;;;;;;1483321;78;1558;-66
2023/06/08 07:27:44;;;;;;;;;;;24.90;40.20;;;;;;1485049;78;1274;-64
2023/06/08 07:29:47;;;;;;;;;;;25.00;40.10;;;;;;1491908;78;1259;-65
2023/06/08 07:31:49;;;;;;;;;;;25.00;39.80;;;;;;1486864;78;1160;-65
2023/06/08 07:33:51;;;;;;;;;;;25.00;39.90;;;;;;1483729;78;1254;-64
2023/06/08 07:35:53;;;;;;;;;;;25.10;39.70;;;;;;1479952;78;1323;-64
2023/06/08 07:37:55;;;;;;;;;;;25.10;39.40;;;;;;1491735;78;1321;-65
2023/06/08 07:39:57;;;;;;;;;;;25.10;39.40;;;;;;1483454;78;1930;-65
2023/06/08 07:41:59;;;;;;;;;;;25.10;39.40;;;;;;1484833;78;1254;-65
2023/06/08 07:44:02;;;;;;;;;;;25.10;39.40;;;;;;1487965;78;1601;-65
2023/06/08 07:46:04;;;;;;;;;;;25.10;39.40;;;;;;1501541;78;1347;-65
2023/06/08 07:48:06;;;;;;;;;;;25.20;39.20;;;;;;1477320;78;1304;-65
2023/06/08 07:50:08;;;;;;;;;;;25.20;39.30;;;;;;1496077;78;1324;-64
2023/06/08 07:52:09;;;;;;;;;;;25.20;39.20;;;;;;1497986;78;1202;-66
2023/06/08 07:54:13;;;;;;;;;;;25.20;39.10;;;;;;1491424;78;1203;-65
2023/06/08 07:56:15;;;;;;;;;;;25.30;39.10;;;;;;1490643;78;1295;-64
2023/06/08 07:58:17;;;;;;;;;;;25.40;38.90;;;;;;1477862;78;1380;-64
2023/06/08 08:00:19;;;;;;;;;;;25.40;38.90;;;;;;1484807;78;1939;-65
2023/06/08 08:02:21;;;;;;;;;;;25.40;38.80;;;;;;1494625;78;1252;-64
2023/06/08 08:04:23;;;;;;;;;;;25.40;38.70;;;;;;1485698;78;1085;-64
2023/06/08 08:06:25;;;;;;;;;;;25.50;38.70;;;;;;1486990;78;1093;-63
2023/06/08 08:08:27;;;;;;;;;;;25.50;38.60;;;;;;1494756;78;1115;-62
2023/06/08 08:10:29;;;;;;;;;;;25.40;38.70;;;;;;1482282;78;1369;-63
2023/06/08 08:12:30;;;;;;;;;;;25.50;38.60;;;;;;1482439;78;1329;-63
2023/06/08 08:14:32;;;;;;;;;;;25.50;38.50;;;;;;1482179;78;1348;-62
2023/06/08 08:16:34;;;;;;;;;;;25.50;38.40;;;;;;1491426;78;1133;-63
2023/06/08 08:18:36;;;;;;;;;;;25.50;38.30;;;;;;1478440;78;1506;-62
2023/06/08 08:20:38;;;;;;;;;;;25.50;38.40;;;;;;1480920;78;1936;-63
2023/06/08 08:22:40;;;;;;;;;;;25.50;38.50;;;;;;1482417;78;1522;-66
2023/06/08 08:24:42;;;;;;;;;;;25.40;38.60;;;;;;1485364;78;1510;-64
2023/06/08 08:26:44;;;;;;;;;;;25.40;38.70;;;;;;1481181;78;1304;-64
2023/06/08 08:28:46;;;;;;;;;;;25.40;39.10;;;;;;1480065;78;1316;-63
2023/06/08 08:30:48;;;;;;;;;;;25.40;39.50;;;;;;1480290;78;1150;-64
2023/06/08 08:32:50;;;;;;;;;;;25.30;39.30;;;;;;1480911;78;1265;-62
2023/06/08 08:34:52;;;;;;;;;;;25.20;39.50;;;;;;1481953;78;1563;-61
2023/06/08 08:36:55;;;;;;;;;;;25.20;39.20;;;;;;1485511;78;1221;-61
2023/06/08 08:38:57;;;;;;;;;;;25.30;38.80;;;;;;1475655;78;1555;-61
2023/06/08 08:41:03;;;;;;;;;;;25.30;38.70;;;;;;1474981;78;1917;-61
2023/06/08 08:43:13;;;;;;;;;;;25.20;38.60;;;;;;1482764;78;1494;-61
2023/06/08 08:45:16;;;;;;;;;;;25.20;38.40;;;;;;1475650;78;1330;-61
2023/06/08 08:47:18;;;;;;;;;;;25.30;38.40;;;;;;1489493;78;1331;-61
2023/06/08 08:49:22;;;;;;;;;;;25.20;38.20;;;;;;1484154;78;1442;-61
2023/06/08 08:51:25;;;;;;;;;;;25.20;38.40;;;;;;1478091;78;1373;-62
2023/06/08 08:53:30;;;;;;;;;;;25.30;38.40;;;;;;1486971;78;1546;-61
2023/06/08 08:55:33;;;;;;;;;;;25.30;38.10;;;;;;1480740;78;1265;-61
2023/06/08 08:57:36;;;;;;;;;;;25.20;38.10;;;;;;1476663;78;1409;-61
2023/06/08 08:59:38;;;;;;;;;;;25.20;38.50;;;;;;1479878;78;1325;-62
2023/06/08 09:01:40;;;;;;;;;;;25.20;38.60;;;;;;1478289;78;1923;-61
2023/06/08 09:03:42;;;;;;;;;;;25.30;38.70;;;;;;1474474;78;1259;-61
2023/06/08 09:05:44;;;;;;;;;;;25.40;38.90;;;;;;1483015;78;1393;-61
2023/06/08 09:07:46;;;;;;;;;;;25.50;38.90;;;;;;1471720;78;1520;-60
2023/06/08 09:10:06;;;;;;;;;;;25.50;38.90;;;;;;1488276;78;1275;-60
2023/06/08 09:12:10;;;;;;;;;;;25.50;39.00;;;;;;1475659;78;1247;-59
2023/06/08 09:14:12;;;;;;;;;;;25.40;38.70;;;;;;1479956;78;1554;-56
2023/06/08 09:16:19;;;;;;;;;;;25.40;39.90;;;;;;1483305;78;1221;-59
2023/06/08 09:18:21;;;;;;;;;;;25.50;40.00;;;;;;1472761;78;1783;-63
2023/06/08 09:20:29;;;;;;;;;;;25.50;39.20;;;;;;1482546;77;1932;-58
2023/06/08 09:22:31;;;;;;;;;;;25.50;39.30;;;;;;1477533;78;1253;-58
2023/06/08 09:24:33;;;;;;;;;;;25.40;39.00;;;;;;1478071;78;1087;-56
2023/06/08 09:26:36;;;;;;;;;;;25.50;39.20;;;;;;1478662;78;1073;-59
2023/06/08 09:28:38;;;;;;;;;;;25.50;38.90;;;;;;1482460;78;1533;-57
2023/06/08 09:30:40;;;;;;;;;;;25.60;38.40;;;;;;1480129;78;1529;-58
2023/06/08 09:32:42;;;;;;;;;;;25.60;38.00;;;;;;1482251;78;1391;-58
2023/06/08 09:34:53;;;;;;;;;;;25.50;38.10;;;;;;1481597;78;1205;-58
2023/06/08 09:36:56;;;;;;;;;;;25.50;37.80;;;;;;1479550;78;1214;-58
2023/06/08 09:38:58;;;;;;;;;;;25.40;37.50;;;;;;1475936;78;1914;-62
2023/06/08 09:41:22;;;;;;;;;;;25.30;37.60;;;;;;1480643;78;1934;-60
2023/06/08 09:43:37;;;;;;;;;;;25.40;37.50;;;;;;1477880;78;1292;-64
2023/06/08 09:45:47;;;;;;;;;;;25.40;36.60;;;;;;1478067;78;1298;-60
2023/06/08 09:47:49;;;;;;;;;;;25.30;37.30;;;;;;1475465;78;1325;-62
2023/06/08 09:49:51;;;;;;;;;;;25.30;36.80;;;;;;1475771;78;1260;-62
2023/06/08 09:51:53;;;;;;;;;;;25.30;36.70;;;;;;1477309;78;1296;-60
2023/06/08 09:53:57;;;;;;;;;;;25.20;37.20;;;;;;1474634;78;1335;-60
2023/06/08 09:55:59;;;;;;;;;;;25.30;37.20;;;;;;1478768;78;1348;-63
2023/06/08 09:58:01;;;;;;;;;;;25.30;37.50;;;;;;1472718;78;1356;-63
2023/06/08 10:00:25;;;;;;;;;;;25.20;37.30;;;;;;1474296;78;1207;-56
2023/06/08 10:02:17;;;;;;;;;;;25.20;37.00;;;;;;1473450;78;1938;-58
2023/06/08 10:04:21;;;;;;;;;;;24.50;36.10;;;;;;1480562;78;1577;-60
2023/06/08 10:06:23;;;;;;;;;;;25.10;36.50;;;;;;1485109;78;1346;-57
2023/06/08 10:08:25;;;;;;;;;;;25.10;36.60;;;;;;1486065;78;1362;-58
2023/06/08 10:10:28;;;;;;;;;;;25.00;37.10;;;;;;1477271;78;1257;-59
2023/06/08 10:12:30;;;;;;;;;;;25.10;36.40;;;;;;1475280;78;1903;-58
2023/06/08 10:14:32;;;;;;;;;;;25.10;37.00;;;;;;1474443;78;1223;-57
2023/06/08 10:16:34;;;;;;;;;;;25.10;36.20;;;;;;1491013;78;1288;-59
2023/06/08 10:18:37;;;;;;;;;;;25.10;36.80;;;;;;1478972;78;1598;-58
2023/06/08 10:20:38;;;;;;;;;;;25.10;36.50;;;;;;1473207;78;1944;-57
2023/06/08 10:22:40;;;;;;;;;;;25.00;35.90;;;;;;1481608;78;747;-58
2023/06/08 10:24:42;;;;;;;;;;;24.90;36.00;;;;;;1482993;78;686;-58
2023/06/08 10:26:45;;;;;;;;;;;24.90;36.20;;;;;;1494341;78;587;-58
2023/06/08 10:29:06;;;;;;;;;;;24.90;36.10;;;;;;1485200;78;1135;-59
2023/06/08 10:31:10;;;;;;;;;;;24.90;36.30;;;;;;1477713;78;1540;-57
2023/06/08 10:33:15;;;;;;;;;;;24.90;36.00;;;;;;1455865;78;1220;-57
2023/06/08 10:35:16;;;;;;;;;;;24.90;36.60;;;;;;1473360;78;1050;-58
2023/06/08 10:37:28;;;;;;;;;;;25.00;36.00;;;;;;1482118;78;1166;-57
2023/06/08 10:39:30;;;;;;;;;;;25.00;35.80;;;;;;1475846;78;721;-58
2023/06/08 10:41:38;;;;;;;;;;;25.00;35.70;;;;;;1479609;78;1908;-58
2023/06/08 10:43:42;;;;;;;;;;;24.90;35.10;;;;;;1488658;78;743;-57
2023/06/08 10:45:45;;;;;;;;;;;24.90;34.80;;;;;;1460709;79;1583;-58
2023/06/08 10:47:48;;;;;;;;;;;24.80;34.90;;;;;;1480011;78;1139;-58
2023/06/08 10:49:58;;;;;;;;;;;24.90;35.00;;;;;;1479555;78;752;-58
2023/06/08 10:52:00;;;;;;;;;;;24.90;35.20;;;;;;1477658;78;848;-58
2023/06/08 10:54:02;;;;;;;;;;;24.90;35.20;;;;;;1482887;77;926;-58
2023/06/08 10:56:04;;;;;;;;;;;24.90;34.00;;;;;;1485073;78;773;-58
2023/06/08 10:58:06;;;;;;;;;;;24.80;34.20;;;;;;1479648;78;1130;-56
2023/06/08 11:00:32;;;;;;;;;;;24.80;33.40;;;;;;1482910;78;1559;-58
2023/06/08 11:02:34;;;;;;;;;;;24.80;34.30;;;;;;1492325;78;1920;-59
2023/06/08 11:04:36;;;;;;;;;;;24.80;34.40;;;;;;1495366;78;681;-59
2023/06/08 11:06:38;;;;;;;;;;;24.80;34.80;;;;;;1500855;78;799;-58
2023/06/08 11:08:40;;;;;;;;;;;24.80;35.00;;;;;;1483670;78;1114;-58
2023/06/08 11:10:43;;;;;;;;;;;24.80;35.20;;;;;;1472288;78;720;-59
2023/06/08 11:12:45;;;;;;;;;;;24.90;34.40;;;;;;1482251;78;844;-60
2023/06/08 11:14:47;;;;;;;;;;;24.80;34.70;;;;;;1481448;78;1545;-59
2023/06/08 11:16:52;;;;;;;;;;;24.80;34.40;;;;;;1477529;78;716;-60
2023/06/08 11:18:54;;;;;;;;;;;24.80;34.90;;;;;;1483763;78;1158;-61
2023/06/08 11:21:00;;;;;;;;;;;24.80;34.90;;;;;;1479648;78;1934;-60
2023/06/08 11:23:00;;;;;;;;;;;24.80;34.50;;;;;;1476747;78;1722;-59
2023/06/08 11:25:02;;;;;;;;;;;24.80;35.30;;;;;;1476450;78;792;-56
2023/06/08 11:27:04;;;;;;;;;;;24.80;35.00;;;;;;1483950;78;1194;-57
2023/06/08 11:29:06;;;;;;;;;;;24.80;35.00;;;;;;1479773;78;1655;-57
2023/06/08 11:31:09;;;;;;;;;;;24.80;35.20;;;;;;1473256;78;770;-60
2023/06/08 11:33:17;;;;;;;;;;;24.80;35.10;;;;;;1481083;78;824;-59
2023/06/08 11:35:18;;;;;;;;;;;24.80;35.00;;;;;;1479054;78;1643;-59
2023/06/08 11:37:20;;;;;;;;;;;24.90;35.20;;;;;;1480695;78;1168;-60
2023/06/08 11:39:22;;;;;;;;;;;24.90;34.80;;;;;;1489621;78;694;-58
2023/06/08 11:41:24;;;;;;;;;;;24.80;35.20;;;;;;1473278;78;1932;-59
2023/06/08 11:43:25;;;;;;;;;;;24.80;35.00;;;;;;1484481;78;1733;-58
2023/06/08 11:45:28;;;;;;;;;;;24.80;35.20;;;;;;1485492;78;689;-58
2023/06/08 11:47:30;;;;;;;;;;;24.80;34.80;;;;;;1486210;78;1145;-57
2023/06/08 11:49:51;;;;;;;;;;;24.80;35.10;;;;;;1493175;78;695;-57
2023/06/08 11:51:53;;;;;;;;;;;24.80;34.80;;;;;;1489943;78;677;-58
2023/06/08 11:53:56;;;;;;;;;;;24.80;34.50;;;;;;1487013;78;788;-59
2023/06/08 11:55:59;;;;;;;;;;;24.70;35.00;;;;;;1487167;78;1545;-58
2023/06/08 11:58:02;;;;;;;;;;;24.80;34.70;;;;;;1485794;78;1128;-59
2023/06/08 12:00:06;;;;;;;;;;;24.70;34.40;;;;;;1479908;78;721;-59
2023/06/08 12:02:11;;;;;;;;;;;24.70;34.60;;;;;;1483066;78;1909;-58
2023/06/08 12:04:13;;;;;;;;;;;24.80;34.90;;;;;;1491178;78;758;-57
2023/06/08 12:06:16;;;;;;;;;;;24.70;34.90;;;;;;1484939;78;751;-59
2023/06/08 12:08:19;;;;;;;;;;;24.70;35.00;;;;;;1483031;78;1200;-60
2023/06/08 12:10:21;;;;;;;;;;;24.70;35.00;;;;;;1485432;78;1469;-58
2023/06/08 12:12:25;;;;;;;;;;;24.70;35.60;;;;;;1478976;78;693;-59